Terminal Aerodrome Forecast
Issued by NWS

Home | Current Version | Previous Version | Text Only | Print | Product List | Glossary On
Versions: 1 2 3 4 5 6 7 8 9 10 11 12 13 14 15 16 17 18 19 20 21 22 23 24 25 26 27 28 29 30 31
666
FTUS45 KREV 291739
TAFRNO
TAF
KRNO 291739Z 2918/3018 28008KT P6SM SCT090 BKN160
     FM292000 30015G25KT P6SM SCT060 BKN110
     FM300200 34016G28KT 5SM SHRA SCT018 OVC030
     FM300700 34014KT P6SM VCSH SCT030 OVC045
     FM301500 02013KT P6SM OVC050=

USA.gov is the U.S. government's official web portal to all federal, state and local government web resources and services.